Time;durP1;ratioP1;P1;durP2;ratioP2;P2;SDS_P1;SDS_P2;PMS_P1;PMS_P2;Temp;Humidity;BMP_temperature;BMP_pressure;BME280_temperature;BME280_humidity;BME280_pressure;Samples;Min_cycle;Max_cycle;Signal;HPM_P1;HPM_P2
2022/05/08 00:01:26;;;;;;;1.90;1.40;;;;;;;16.98;56.54;101873.88;5101352;28;20030;-87
2022/05/08 00:03:56;;;;;;;1.30;1.20;;;;;;;16.89;57.19;101877.72;5085015;28;20490;-87
2022/05/08 00:06:29;;;;;;;2.40;1.27;;;;;;;16.97;57.15;101882.75;5098715;28;20032;-87
2022/05/08 00:09:00;;;;;;;5.22;1.15;;;;;;;17.06;56.86;101884.22;5083364;28;20053;-87
2022/05/08 00:11:31;;;;;;;5.07;1.25;;;;;;;17.00;56.80;101880.00;5084764;28;20262;-87
2022/05/08 00:14:01;;;;;;;1.33;1.23;;;;;;;16.87;57.61;101876.88;5087683;28;20050;-85
2022/05/08 00:16:32;;;;;;;1.90;1.77;;;;;;;16.95;57.08;101866.03;5082149;28;20073;-86
2022/05/08 00:19:03;;;;;;;2.55;2.35;;;;;;;16.84;56.74;101872.56;5098350;28;20627;-87
2022/05/08 00:21:33;;;;;;;0.80;0.80;;;;;;;16.74;58.67;101871.16;5094590;28;20038;-87
2022/05/08 00:24:04;;;;;;;1.77;1.65;;;;;;;16.78;57.40;101874.56;5087168;28;20073;-87
2022/05/08 00:26:35;;;;;;;1.85;1.75;;;;;;;16.77;57.09;101876.34;5105087;28;20130;-87
2022/05/08 00:29:07;;;;;;;3.03;2.47;;;;;;;16.80;57.13;101878.03;5084815;28;20465;-87
2022/05/08 00:31:38;;;;;;;4.30;2.10;;;;;;;16.75;57.42;101883.50;5087150;28;20215;-87
2022/05/08 00:34:09;;;;;;;2.08;1.88;;;;;;;16.73;57.09;101874.72;5103830;28;20105;-85
2022/05/08 00:36:40;;;;;;;1.35;1.25;;;;;;;16.73;56.98;101879.16;5106653;28;20049;-86
2022/05/08 00:39:10;;;;;;;1.58;1.48;;;;;;;16.72;57.32;101878.28;5096437;28;20039;-86
2022/05/08 00:41:41;;;;;;;0.77;0.77;;;;;;;16.69;57.61;101878.41;5101238;28;20042;-87
2022/05/08 00:44:12;;;;;;;1.35;1.25;;;;;;;16.68;57.36;101877.53;5085631;28;20054;-87
2022/05/08 00:46:43;;;;;;;1.20;1.13;;;;;;;16.57;60.47;101873.50;5111396;28;20551;-86
2022/05/08 00:49:16;;;;;;;2.53;2.33;;;;;;;16.53;58.56;101875.41;5101278;28;20193;-87
2022/05/08 00:51:48;;;;;;;2.30;1.85;;;;;;;16.58;60.03;101880.53;5103946;28;20046;-87
2022/05/08 00:54:19;;;;;;;5.07;2.70;;;;;;;16.59;58.38;101872.53;5084034;28;20367;-87
2022/05/08 00:56:50;;;;;;;3.60;2.30;;;;;;;16.61;57.92;101881.31;5103163;28;20030;-87
2022/05/08 00:59:20;;;;;;;1.33;1.23;;;;;;;16.58;58.09;101884.03;5075572;28;20510;-87
2022/05/08 01:01:51;;;;;;;2.03;1.52;;;;;;;16.63;57.83;101879.47;5097050;28;20909;-87
2022/05/08 01:04:21;;;;;;;2.33;2.13;;;;;;;16.62;58.17;101879.50;5080206;28;20038;-87
2022/05/08 01:06:52;;;;;;;3.15;2.80;;;;;;;16.59;58.44;101875.19;5084319;28;20518;-87
2022/05/08 01:09:23;;;;;;;2.83;1.63;;;;;;;16.54;59.55;101877.13;5095747;28;20676;-87
2022/05/08 01:11:54;;;;;;;1.67;1.48;;;;;;;16.52;59.04;101881.63;5083399;28;20066;-87
2022/05/08 01:14:25;;;;;;;2.35;2.13;;;;;;;16.55;61.41;101880.63;5082530;28;20113;-87
2022/05/08 01:16:55;;;;;;;1.42;1.33;;;;;;;16.51;59.32;101880.75;5087138;28;20034;-87
2022/05/08 01:19:26;;;;;;;2.13;1.95;;;;;;;16.47;60.90;101873.81;5098023;28;20410;-87
2022/05/08 01:21:56;;;;;;;1.83;1.73;;;;;;;16.41;61.90;101889.03;5100577;28;20167;-87
2022/05/08 01:24:27;;;;;;;3.58;1.67;;;;;;;16.37;62.08;101885.63;5095189;28;20568;-86
2022/05/08 01:26:57;;;;;;;1.98;1.83;;;;;;;16.50;60.06;101880.78;5078544;28;20042;-87
2022/05/08 01:29:28;;;;;;;1.33;1.10;;;;;;;16.44;60.27;101886.31;5097287;28;20123;-87
2022/05/08 01:31:58;;;;;;;0.82;0.82;;;;;;;16.33;62.12;101889.31;5087351;28;20030;-87
2022/05/08 01:34:32;;;;;;;1.70;1.60;;;;;;;16.50;61.05;101886.97;5085837;28;20752;-87
2022/05/08 01:37:02;;;;;;;1.35;1.25;;;;;;;16.45;61.26;101883.59;5093264;28;20070;-86
2022/05/08 01:39:33;;;;;;;0.70;0.70;;;;;;;16.48;59.99;101885.28;5078826;28;20352;-87
2022/05/08 01:42:06;;;;;;;0.98;0.98;;;;;;;16.22;61.47;101889.66;5082938;28;20066;-87
2022/05/08 01:44:36;;;;;;;0.60;0.60;;;;;;;16.48;59.94;101890.59;5105016;28;20050;-87
2022/05/08 01:49:57;;;;;;;0.70;0.70;;;;;;;16.27;60.71;101898.31;5102274;28;20502;-87
2022/05/08 01:52:27;;;;;;;8.57;1.63;;;;;;;15.96;62.17;101899.28;5087636;28;20508;-87
2022/05/08 01:54:58;;;;;;;0.80;0.80;;;;;;;16.10;60.39;101903.28;5107853;28;20050;-87
2022/05/08 01:57:28;;;;;;;0.30;0.30;;;;;;;16.04;60.41;101904.31;5099644;28;20126;-87
2022/05/08 01:59:59;;;;;;;0.98;0.93;;;;;;;15.92;60.32;101907.38;5084287;28;20042;-87
2022/05/08 02:02:29;;;;;;;0.55;0.55;;;;;;;16.03;59.80;101907.91;5085475;28;20089;-86
2022/05/08 02:05:02;;;;;;;1.02;0.77;;;;;;;15.63;61.94;101907.31;5079250;28;20202;-86
2022/05/08 02:07:33;;;;;;;1.45;1.35;;;;;;;15.85;60.48;101902.28;5110732;28;20035;-86
2022/05/08 02:10:04;;;;;;;0.90;0.85;;;;;;;15.80;61.23;101908.56;5078324;29;20091;-87
2022/05/08 02:12:35;;;;;;;1.23;1.10;;;;;;;15.91;59.45;101906.50;5108600;28;20023;-87
2022/05/08 02:15:08;;;;;;;3.03;1.58;;;;;;;15.78;61.14;101910.41;5099389;28;20043;-87
2022/05/08 02:17:39;;;;;;;1.30;1.02;;;;;;;15.65;61.00;101921.34;5087395;28;20069;-86
2022/05/08 02:20:11;;;;;;;0.95;0.95;;;;;;;15.71;60.16;101918.53;5090815;28;20062;-87
2022/05/08 02:22:41;;;;;;;0.50;0.50;;;;;;;15.62;61.44;101917.94;5085346;28;20113;-87
2022/05/08 02:25:12;;;;;;;0.77;0.77;;;;;;;15.78;60.47;101920.97;5080431;28;20130;-87
2022/05/08 02:27:44;;;;;;;1.45;1.15;;;;;;;15.76;60.05;101922.78;5082042;28;20413;-87
2022/05/08 02:30:17;;;;;;;1.70;1.58;;;;;;;15.51;61.52;101920.88;5081194;28;20027;-87
2022/05/08 02:32:53;;;;;;;0.88;0.88;;;;;;;15.56;60.44;101916.34;5088165;28;20031;-87
2022/05/08 02:35:23;;;;;;;1.58;1.48;;;;;;;15.56;60.22;101921.63;5094802;28;20042;-87
2022/05/08 02:37:56;;;;;;;3.30;1.27;;;;;;;15.36;60.87;101916.91;5115006;28;20031;-86
2022/05/08 02:40:26;;;;;;;0.57;0.57;;;;;;;15.27;60.84;101916.25;5083068;28;20051;-87
2022/05/08 02:42:57;;;;;;;0.30;0.30;;;;;;;15.20;61.17;101917.34;5094350;28;20066;-86
2022/05/08 02:45:27;;;;;;;0.65;0.63;;;;;;;15.01;61.58;101918.72;5081770;28;20570;-87
2022/05/08 02:47:57;;;;;;;1.55;0.90;;;;;;;14.93;61.11;101916.28;5088067;28;20023;-86
2022/05/08 02:50:28;;;;;;;0.30;0.30;;;;;;;15.14;60.29;101917.47;5103174;28;20031;-87
2022/05/08 02:52:58;;;;;;;0.60;0.60;;;;;;;15.25;59.40;101914.53;5085720;28;20180;-87
2022/05/08 02:58:33;;;;;;;1.13;1.02;;;;;;;14.81;61.47;101922.75;5087490;28;20031;-86
2022/05/08 03:01:07;;;;;;;0.50;0.50;;;;;;;14.91;60.46;101931.31;5090215;28;20035;-87
2022/05/08 03:03:38;;;;;;;0.68;0.68;;;;;;;14.67;62.24;101928.38;5081810;28;20043;-87
2022/05/08 03:06:08;;;;;;;0.60;0.52;;;;;;;14.88;61.13;101926.09;5084606;28;20045;-86
2022/05/08 03:08:40;;;;;;;0.85;0.73;;;;;;;14.85;60.56;101926.16;5082776;28;20066;-87
2022/05/08 03:11:25;;;;;;;0.43;0.43;;;;;;;15.00;60.03;101927.56;5082589;28;20027;-87
2022/05/08 03:13:57;;;;;;;0.80;0.80;;;;;;;14.63;61.19;101924.91;5085742;28;20288;-86
2022/05/08 03:16:28;;;;;;;0.63;0.63;;;;;;;14.89;59.41;101925.19;5082320;28;20038;-87
2022/05/08 03:18:59;;;;;;;0.50;0.50;;;;;;;14.86;60.14;101925.28;5083494;28;20035;-87
2022/05/08 03:21:29;;;;;;;1.48;1.38;;;;;;;14.88;60.01;101926.97;5085900;28;20085;-87
2022/05/08 03:24:03;;;;;;;0.88;0.88;;;;;;;14.66;61.34;101938.94;5083302;28;20237;-87
2022/05/08 03:26:34;;;;;;;2.22;1.38;;;;;;;14.60;61.01;101939.97;5089007;28;20114;-87
2022/05/08 03:29:07;;;;;;;0.40;0.40;;;;;;;14.77;60.54;101932.53;5107421;28;20414;-86
2022/05/08 03:31:38;;;;;;;0.30;0.30;;;;;;;14.86;59.95;101935.84;5094652;28;20336;-87
2022/05/08 03:34:09;;;;;;;0.68;0.68;;;;;;;14.75;59.75;101941.41;5111460;28;20105;-87
2022/05/08 03:36:40;;;;;;;0.40;0.40;;;;;;;14.67;60.63;101944.22;5086490;28;20509;-87
2022/05/08 03:39:13;;;;;;;1.55;1.42;;;;;;;14.45;61.16;101942.09;5079240;28;20050;-87
2022/05/08 03:41:44;;;;;;;0.88;0.75;;;;;;;14.47;60.70;101936.75;5101854;28;20042;-87
2022/05/08 03:44:14;;;;;;;0.43;0.43;;;;;;;14.66;59.96;101939.88;5088491;28;20039;-86
2022/05/08 03:46:45;;;;;;;0.50;0.50;;;;;;;14.82;59.00;101944.78;5080296;28;20240;-86
2022/05/08 03:49:15;;;;;;;0.65;0.63;;;;;;;14.71;59.63;101945.03;5081319;28;20122;-87
2022/05/08 03:51:46;;;;;;;0.45;0.45;;;;;;;14.76;59.20;101946.63;5117564;28;20015;-87
2022/05/08 03:54:16;;;;;;;0.50;0.50;;;;;;;14.84;59.59;101941.16;5099431;28;20093;-87
2022/05/08 03:56:47;;;;;;;1.90;1.77;;;;;;;14.72;59.85;101947.63;5083401;28;20049;-87
2022/05/08 03:59:17;;;;;;;0.70;0.70;;;;;;;14.39;60.92;101949.28;5089822;28;20581;-86
2022/05/08 04:01:48;;;;;;;1.13;1.05;;;;;;;14.63;59.56;101951.31;5104609;28;20434;-86
2022/05/08 04:04:21;;;;;;;1.83;0.75;;;;;;;14.45;60.29;101952.66;5089193;28;20031;-87
2022/05/08 04:06:51;;;;;;;1.00;0.90;;;;;;;14.37;60.54;101954.59;5101155;28;20050;-87
2022/05/08 04:09:22;;;;;;;0.75;0.75;;;;;;;14.53;59.86;101951.59;5114674;28;20149;-86
2022/05/08 04:11:52;;;;;;;0.88;0.88;;;;;;;14.66;59.28;101954.81;5102028;28;20046;-87
2022/05/08 04:14:26;;;;;;;0.75;0.75;;;;;;;14.44;59.63;101957.97;5104111;28;20461;-87
2022/05/08 04:16:56;;;;;;;0.82;0.82;;;;;;;14.32;60.52;101954.69;5079372;28;20043;-86
2022/05/08 04:19:27;;;;;;;1.65;1.30;;;;;;;14.47;58.93;101958.75;5101394;28;20031;-87
2022/05/08 04:25:00;;;;;;;0.52;0.52;;;;;;;14.43;59.82;101962.38;5114066;28;20049;-86
2022/05/08 04:27:31;;;;;;;1.10;1.10;;;;;;;14.36;60.22;101965.19;5090480;28;20494;-87
2022/05/08 04:30:03;;;;;;;1.40;1.25;;;;;;;14.32;59.63;101964.41;5085151;28;20034;-87
2022/05/08 04:32:33;;;;;;;0.95;0.73;;;;;;;14.39;59.40;101970.38;5082769;28;20130;-87
2022/05/08 04:35:04;;;;;;;0.95;0.73;;;;;;;14.32;61.47;101967.91;5112696;28;20039;-87
2022/05/08 04:37:35;;;;;;;7.43;1.73;;;;;;;14.53;59.87;101964.78;5086673;28;20030;-88
2022/05/08 04:40:06;;;;;;;1.08;1.02;;;;;;;14.42;59.61;101967.69;5115379;28;20042;-87
2022/05/08 04:42:36;;;;;;;1.10;1.05;;;;;;;14.27;61.10;101974.19;5095568;28;20030;-87
2022/05/08 04:45:07;;;;;;;1.50;1.40;;;;;;;14.44;59.58;101964.09;5097692;28;20046;-86
2022/05/08 04:47:38;;;;;;;0.68;0.68;;;;;;;14.03;62.85;101976.47;5111153;28;20027;-86
2022/05/08 04:50:08;;;;;;;1.33;1.27;;;;;;;14.13;60.97;101978.00;5082752;28;20096;-87
2022/05/08 04:52:39;;;;;;;0.85;0.85;;;;;;;14.37;60.51;101980.16;5092644;28;20038;-87
2022/05/08 04:55:12;;;;;;;1.95;1.77;;;;;;;14.54;59.57;101985.03;5082182;28;20244;-86
2022/05/08 04:57:43;;;;;;;0.82;0.82;;;;;;;14.30;60.45;101989.97;5086941;28;20568;-87
2022/05/08 05:00:14;;;;;;;0.40;0.40;;;;;;;14.11;61.85;101989.50;5097962;28;20185;-86
2022/05/08 05:02:44;;;;;;;2.05;0.70;;;;;;;14.02;62.24;101987.91;5080422;28;20453;-86
2022/05/08 05:05:15;;;;;;;0.65;0.65;;;;;;;14.21;60.66;101995.44;5077955;28;20074;-86
2022/05/08 05:07:46;;;;;;;2.75;2.10;;;;;;;13.92;63.09;101995.16;5079718;28;20105;-86
2022/05/08 05:10:17;;;;;;;1.48;1.38;;;;;;;13.93;62.32;101991.63;5077543;28;20031;-86
2022/05/08 05:12:47;;;;;;;1.00;1.00;;;;;;;13.72;63.56;101994.72;5081268;28;20116;-86
2022/05/08 05:15:18;;;;;;;1.90;1.55;;;;;;;13.81;62.27;101994.50;5078082;28;20042;-86
2022/05/08 05:17:52;;;;;;;1.08;1.08;;;;;;;13.48;63.43;102004.81;5100208;28;20034;-86
2022/05/08 05:20:22;;;;;;;1.42;1.33;;;;;;;13.82;61.63;102005.06;5100903;28;20210;-86
2022/05/08 05:22:53;;;;;;;0.88;0.88;;;;;;;13.90;61.25;102006.66;5094842;28;20337;-86
2022/05/08 05:25:23;;;;;;;0.95;0.95;;;;;;;13.21;64.96;102012.31;5079592;28;20135;-86
2022/05/08 05:27:54;;;;;;;1.75;1.48;;;;;;;13.73;62.01;102012.25;5083537;28;20035;-86
2022/05/08 05:30:25;;;;;;;1.70;1.63;;;;;;;13.82;61.48;102009.44;5074994;28;20066;-86
2022/05/08 05:32:55;;;;;;;1.65;1.55;;;;;;;13.66;62.59;102019.44;5081874;28;20142;-86
2022/05/08 05:35:26;;;;;;;9.20;2.28;;;;;;;13.66;61.60;102015.03;5078561;28;20046;-86
2022/05/08 05:37:56;;;;;;;1.67;1.50;;;;;;;13.72;62.28;102024.59;5092980;28;20249;-86
2022/05/08 05:40:27;;;;;;;2.17;1.85;;;;;;;13.90;60.80;102022.50;5078353;28;20137;-85
2022/05/08 05:42:57;;;;;;;1.92;1.83;;;;;;;13.99;60.43;102030.22;5095125;28;20027;-86
2022/05/08 05:45:28;;;;;;;7.50;1.65;;;;;;;14.06;60.14;102029.19;5094235;28;20130;-86
2022/05/08 05:48:00;;;;;;;2.08;1.90;;;;;;;14.05;59.58;102031.88;5108415;28;20062;-87
2022/05/08 05:50:31;;;;;;;1.30;1.20;;;;;;;13.90;60.18;102030.41;5099088;28;20053;-87
2022/05/08 05:53:01;;;;;;;1.77;1.63;;;;;;;14.07;59.67;102035.31;5101501;28;20411;-88
2022/05/08 05:55:32;;;;;;;3.00;2.33;;;;;;;14.01;59.92;102031.03;5123645;28;20050;-86
2022/05/08 05:58:02;;;;;;;2.25;2.05;;;;;;;13.97;59.38;102034.66;5107235;29;20054;-86
2022/05/08 06:00:33;;;;;;;1.17;1.08;;;;;;;14.06;59.27;102039.75;5129713;28;20612;-86
2022/05/08 06:03:03;;;;;;;1.08;1.08;;;;;;;14.04;59.05;102044.19;5122841;28;20047;-87
2022/05/08 06:05:34;;;;;;;8.07;1.55;;;;;;;14.05;58.60;102043.28;5093319;28;20046;-86
2022/05/08 06:08:05;;;;;;;0.90;0.90;;;;;;;14.13;58.23;102049.28;5089950;28;20377;-87
2022/05/08 06:10:36;;;;;;;1.63;1.17;;;;;;;13.94;58.74;102045.25;5094018;28;20395;-87
2022/05/08 06:13:07;;;;;;;1.20;1.20;;;;;;;14.07;58.36;102046.75;5102053;28;20038;-87
2022/05/08 06:15:37;;;;;;;1.70;1.60;;;;;;;14.00;58.16;102053.94;5100759;28;20035;-87
2022/05/08 06:18:10;;;;;;;1.63;1.40;;;;;;;13.85;58.33;102054.25;5093756;28;20035;-87
2022/05/08 06:20:41;;;;;;;4.20;1.42;;;;;;;13.86;58.34;102055.97;5092749;28;20546;-87
2022/05/08 06:23:11;;;;;;;3.20;0.77;;;;;;;13.80;58.46;102062.25;5119928;28;20281;-87
2022/05/08 06:25:42;;;;;;;0.82;0.82;;;;;;;13.90;58.14;102060.28;5086313;28;20082;-87
2022/05/08 06:28:19;;;;;;;1.17;1.13;;;;;;;13.98;58.04;102057.50;5122224;28;20059;-88
2022/05/08 06:30:49;;;;;;;1.42;1.33;;;;;;;14.04;57.68;102057.38;5105711;28;20291;-87
2022/05/08 06:33:20;;;;;;;2.92;0.98;;;;;;;13.88;57.91;102056.81;5085470;28;20042;-87
2022/05/08 06:35:51;;;;;;;1.50;1.20;;;;;;;13.85;58.03;102063.00;5086771;28;20058;-88
2022/05/08 06:38:22;;;;;;;1.38;1.27;;;;;;;13.96;57.98;102064.56;5091532;28;20048;-88
2022/05/08 06:40:52;;;;;;;1.67;1.58;;;;;;;13.80;58.42;102059.59;5085599;28;20085;-86
2022/05/08 06:43:23;;;;;;;1.08;0.57;;;;;;;13.99;57.81;102067.16;5106649;28;20091;-87
2022/05/08 06:45:54;;;;;;;0.68;0.68;;;;;;;13.87;57.69;102063.00;5091836;28;20126;-87
2022/05/08 06:48:27;;;;;;;1.70;1.60;;;;;;;13.83;57.25;102067.47;5100853;28;20062;-88
2022/05/08 06:50:57;;;;;;;3.17;1.52;;;;;;;13.94;56.75;102069.00;5107083;28;20069;-88
2022/05/08 06:53:28;;;;;;;0.70;0.60;;;;;;;13.86;57.03;102071.81;5109058;28;20183;-88
2022/05/08 06:55:59;;;;;;;1.13;1.05;;;;;;;13.83;56.96;102079.78;5084043;28;20039;-88
2022/05/08 06:58:30;;;;;;;5.75;1.38;;;;;;;13.90;57.04;102085.81;5079887;28;20099;-88
2022/05/08 07:03:49;;;;;;;1.45;1.35;;;;;;;13.82;57.13;102084.19;5103907;28;20122;-88
2022/05/08 07:06:20;;;;;;;0.75;0.75;;;;;;;13.86;56.92;102079.72;5087846;28;20775;-87
2022/05/08 07:08:50;;;;;;;1.38;1.27;;;;;;;13.67;57.31;102092.41;5104879;28;20145;-88
2022/05/08 07:11:21;;;;;;;3.15;1.15;;;;;;;13.78;56.81;102085.13;5094074;28;20169;-88
2022/05/08 07:13:54;;;;;;;1.40;1.30;;;;;;;13.89;57.04;102090.19;5096477;28;20151;-88
2022/05/08 07:16:26;;;;;;;1.23;1.10;;;;;;;13.60;57.58;102093.38;5096420;28;20482;-87
2022/05/08 07:18:56;;;;;;;1.42;1.33;;;;;;;13.81;57.41;102098.28;5115458;28;20107;-88
2022/05/08 07:21:27;;;;;;;0.85;0.85;;;;;;;13.78;57.39;102098.31;5102400;28;20057;-88
2022/05/08 07:23:57;;;;;;;2.67;2.47;;;;;;;14.04;56.82;102104.88;5115815;28;20049;-87
2022/05/08 07:26:28;;;;;;;1.95;1.63;;;;;;;14.03;56.73;102103.13;5095753;28;20043;-88
2022/05/08 07:28:59;;;;;;;1.58;1.48;;;;;;;13.83;57.50;102101.75;5111076;28;20051;-86
2022/05/08 07:31:30;;;;;;;1.67;0.75;;;;;;;13.80;57.50;102100.94;5104096;28;20054;-87
2022/05/08 07:36:50;;;;;;;0.68;0.52;;;;;;;14.26;56.18;102102.69;5115886;28;20023;-87
2022/05/08 07:39:21;;;;;;;0.98;0.98;;;;;;;13.93;57.11;102101.56;5119220;28;20045;-86
2022/05/08 07:41:52;;;;;;;1.20;0.85;;;;;;;14.17;56.23;102103.72;5108342;28;20030;-87
2022/05/08 07:44:22;;;;;;;1.05;1.05;;;;;;;14.33;55.73;102114.00;5107184;28;20043;-86
2022/05/08 07:46:53;;;;;;;0.68;0.68;;;;;;;14.07;56.73;102117.13;5112625;28;20026;-86
2022/05/08 07:49:23;;;;;;;0.80;0.80;;;;;;;14.33;56.23;102112.22;5101775;28;20031;-86
2022/05/08 07:51:54;;;;;;;0.80;0.80;;;;;;;14.31;56.07;102113.16;5088671;28;20065;-87
2022/05/08 07:54:25;;;;;;;3.85;1.77;;;;;;;14.26;56.77;102115.00;5093648;28;20035;-87
2022/05/08 07:56:56;;;;;;;1.05;1.05;;;;;;;14.41;55.86;102119.09;5089395;28;20715;-87
2022/05/08 07:59:27;;;;;;;3.80;0.88;;;;;;;14.31;55.71;102118.44;5113282;28;20046;-86
2022/05/08 08:01:57;;;;;;;10.38;1.88;;;;;;;14.22;55.73;102130.03;5094548;28;20037;-87
2022/05/08 08:04:28;;;;;;;0.70;0.70;;;;;;;14.41;55.44;102124.38;5106997;28;20035;-88
2022/05/08 08:06:58;;;;;;;1.45;1.35;;;;;;;14.62;55.07;102138.91;5087782;28;20050;-86
2022/05/08 08:09:29;;;;;;;0.40;0.40;;;;;;;14.45;55.30;102129.56;5123946;28;20450;-87
2022/05/08 08:12:00;;;;;;;10.32;2.10;;;;;;;14.58;55.05;102126.69;5111276;28;20094;-87
2022/05/08 08:14:33;;;;;;;0.73;0.73;;;;;;;14.73;54.66;102136.94;5090616;28;20035;-88
2022/05/08 08:17:08;;;;;;;2.63;1.70;;;;;;;14.71;54.90;102130.81;5084776;28;20031;-87
2022/05/08 08:19:38;;;;;;;1.23;1.13;;;;;;;14.54;54.24;102136.44;5094247;28;20039;-87
2022/05/08 08:22:09;;;;;;;2.60;2.03;;;;;;;14.79;53.40;102144.72;5115157;28;20412;-87
2022/05/08 08:24:40;;;;;;;1.58;0.93;;;;;;;14.83;54.04;102142.03;5116893;28;20609;-87
2022/05/08 08:27:11;;;;;;;0.57;0.57;;;;;;;14.60;53.41;102141.59;5094432;28;20027;-87
2022/05/08 08:29:41;;;;;;;3.50;0.88;;;;;;;14.72;53.88;102140.50;5104784;28;20043;-87
2022/05/08 08:32:12;;;;;;;1.75;1.10;;;;;;;14.82;53.89;102142.94;5126312;28;20106;-86
2022/05/08 08:34:45;;;;;;;1.00;0.70;;;;;;;15.05;53.57;102150.31;5126247;28;20259;-87
2022/05/08 08:37:15;;;;;;;;;;;;;;;14.90;53.64;102147.13;5121186;28;20035;-87
2022/05/08 08:39:46;;;;;;;1.05;1.05;;;;;;;14.78;53.49;102144.78;5110413;28;20199;-87
2022/05/08 08:42:30;;;;;;;1.95;0.75;;;;;;;14.94;53.53;102140.00;5119605;28;20046;-85
2022/05/08 08:48:33;;;;;;;3.13;2.05;;;;;;;15.13;52.75;102152.78;5130107;28;19902;-87
2022/05/08 08:51:04;;;;;;;0.77;0.77;;;;;;;14.82;51.56;102150.84;5107325;28;20345;-86
2022/05/08 08:53:35;;;;;;;3.20;1.75;;;;;;;14.97;51.40;102145.22;5121184;28;20311;-87
2022/05/08 08:56:05;;;;;;;0.52;0.52;;;;;;;15.10;51.53;102153.75;5105176;28;20027;-87
2022/05/08 08:58:36;;;;;;;0.50;0.50;;;;;;;15.07;49.15;102141.47;5105431;28;20051;-87
2022/05/08 09:01:06;;;;;;;0.40;0.40;;;;;;;15.11;50.16;102153.69;5088703;29;20038;-87
2022/05/08 09:03:37;;;;;;;0.95;0.95;;;;;;;15.04;50.38;102149.47;5109108;28;20410;-88
2022/05/08 09:06:08;;;;;;;3.83;1.48;;;;;;;15.10;50.53;102141.38;5107141;28;20027;-87
2022/05/08 09:08:38;;;;;;;4.65;0.93;;;;;;;15.04;49.96;102152.09;5100403;28;20049;-87
2022/05/08 09:11:09;;;;;;;2.35;0.95;;;;;;;15.15;50.14;102153.63;5085389;29;20031;-87
2022/05/08 09:13:48;;;;;;;7.97;1.10;;;;;;;15.18;50.74;102154.44;5092127;28;20118;-87
2022/05/08 09:16:19;;;;;;;1.10;1.02;;;;;;;15.23;50.79;102157.81;5091996;28;20486;-87
2022/05/08 09:18:49;;;;;;;0.93;0.93;;;;;;;15.32;50.64;102156.75;5123107;28;20280;-87
2022/05/08 09:24:16;;;;;;;0.45;0.45;;;;;;;15.18;49.65;102153.53;5106113;28;20109;-86
2022/05/08 09:26:48;;;;;;;3.20;0.68;;;;;;;15.46;50.46;102150.25;5108158;28;20122;-87
2022/05/08 09:29:22;;;;;;;1.48;0.75;;;;;;;15.46;50.09;102148.47;5078805;28;20130;-87
2022/05/08 09:31:52;;;;;;;0.40;0.40;;;;;;;15.51;50.03;102145.69;5087785;28;20035;-87
2022/05/08 09:34:23;;;;;;;1.02;1.02;;;;;;;15.46;50.21;102152.88;5089087;28;20050;-87
2022/05/08 09:37:08;;;;;;;0.90;0.65;;;;;;;15.47;49.69;102154.63;5086794;28;20389;-88
2022/05/08 09:39:38;;;;;;;1.67;1.58;;;;;;;15.56;49.50;102149.97;5086928;28;20071;-87
2022/05/08 09:42:36;;;;;;;0.60;0.60;;;;;;;15.63;50.18;102148.06;5099946;28;20094;-87
2022/05/08 09:45:07;;;;;;;0.30;0.30;;;;;;;15.71;49.70;102142.53;5091722;28;20097;-87
2022/05/08 09:47:48;;;;;;;3.30;0.60;;;;;;;15.59;50.16;102138.44;5108250;28;20149;-88
2022/05/08 09:50:18;;;;;;;1.55;1.45;;;;;;;15.83;49.84;102144.00;5102726;28;20107;-87
2022/05/08 09:52:49;;;;;;;1.38;0.73;;;;;;;15.87;49.84;102143.91;5108825;28;20034;-88
2022/05/08 09:55:20;;;;;;;4.20;1.38;;;;;;;15.66;50.61;102140.00;5101202;28;20063;-87
2022/05/08 09:57:50;;;;;;;0.30;0.30;;;;;;;15.76;50.50;102142.44;5103412;28;20073;-87
2022/05/08 10:00:21;;;;;;;12.90;2.40;;;;;;;15.91;49.80;102141.19;5109476;28;20057;-88
2022/05/08 10:02:55;;;;;;;1.15;1.15;;;;;;;15.93;48.66;102142.03;5114216;28;20181;-87
2022/05/08 10:05:25;;;;;;;1.40;1.30;;;;;;;15.89;48.78;102135.94;5090999;28;20509;-87
2022/05/08 10:07:59;;;;;;;0.30;0.30;;;;;;;15.96;48.14;102145.47;5117831;28;20500;-87
2022/05/08 10:16:45;;;;;;;1.33;1.20;;;;;;;15.91;45.90;102134.09;5115369;28;20390;-88
2022/05/08 10:19:25;;;;;;;0.57;0.57;;;;;;;16.02;43.11;102133.84;5118655;28;20118;-88
2022/05/08 10:21:55;;;;;;;0.98;0.77;;;;;;;15.97;45.08;102133.97;5095453;28;20039;-88
2022/05/08 10:24:28;;;;;;;1.38;1.27;;;;;;;16.09;46.22;102131.88;5117372;28;20068;-88
2022/05/08 10:27:14;;;;;;;0.88;0.88;;;;;;;16.13;46.00;102128.25;5091075;28;20505;-88
2022/05/08 10:29:48;;;;;;;0.50;0.50;;;;;;;16.21;44.68;102123.59;5123337;28;20557;-87
2022/05/08 10:32:28;;;;;;;0.45;0.43;;;;;;;16.26;45.69;102124.31;5108238;28;20062;-88
2022/05/08 10:35:10;;;;;;;0.47;0.47;;;;;;;16.13;42.45;102123.81;5120088;28;20259;-88
2022/05/08 10:37:51;;;;;;;0.35;0.35;;;;;;;16.17;40.38;102114.00;5093807;28;20285;-88
2022/05/08 10:40:22;;;;;;;0.55;0.55;;;;;;;16.31;42.10;102122.44;5088829;28;20042;-88
2022/05/08 10:42:54;;;;;;;0.68;0.60;;;;;;;16.30;42.20;102122.44;5122106;28;20041;-88
2022/05/08 10:45:34;;;;;;;1.35;0.73;;;;;;;16.33;41.04;102123.22;5106327;28;20252;-88
2022/05/08 10:48:17;;;;;;;0.60;0.60;;;;;;;16.35;42.13;102123.22;5085114;28;20046;-88
2022/05/08 10:50:49;;;;;;;0.30;0.30;;;;;;;16.39;42.45;102116.88;5104667;28;20038;-88
2022/05/08 10:53:26;;;;;;;0.65;0.40;;;;;;;16.38;42.25;102112.50;5089095;28;20037;-88
2022/05/08 10:56:09;;;;;;;0.28;0.28;;;;;;;16.43;41.92;102115.00;5110159;28;20034;-88
2022/05/08 10:58:53;;;;;;;0.40;0.40;;;;;;;16.47;43.52;102114.03;5107607;28;20050;-88
2022/05/08 11:01:24;;;;;;;0.70;0.68;;;;;;;16.62;42.50;102105.63;5099266;28;20528;-88
2022/05/08 11:04:09;;;;;;;0.50;0.50;;;;;;;16.70;42.47;102112.47;5093032;28;20046;-89
2022/05/08 11:06:40;;;;;;;0.35;0.35;;;;;;;16.75;40.44;102099.91;5094355;28;20081;-88
2022/05/08 11:09:10;;;;;;;0.45;0.45;;;;;;;16.63;40.09;102110.00;5095889;28;20043;-88
2022/05/08 11:11:41;;;;;;;0.43;0.43;;;;;;;16.75;40.06;102097.28;5088198;28;20497;-87
2022/05/08 11:14:23;;;;;;;0.20;0.20;;;;;;;16.88;38.67;102101.28;5098884;28;20043;-87
2022/05/08 11:16:53;;;;;;;0.20;0.20;;;;;;;16.83;41.06;102096.13;5106875;28;20035;-86
2022/05/08 11:19:24;;;;;;;0.63;0.63;;;;;;;16.87;38.10;102098.66;5111349;28;20410;-87
2022/05/08 11:22:05;;;;;;;0.47;0.47;;;;;;;16.90;40.88;102094.13;5090498;28;20030;-87
2022/05/08 11:24:36;;;;;;;0.82;0.82;;;;;;;16.86;40.27;102094.31;5089645;28;20076;-89
2022/05/08 11:27:12;;;;;;;0.20;0.20;;;;;;;17.00;39.75;102089.47;5101120;28;20211;-87
2022/05/08 11:29:47;;;;;;;0.20;0.20;;;;;;;17.05;38.32;102094.63;5108280;28;20536;-88
2022/05/08 11:38:03;;;;;;;0.30;0.30;;;;;;;17.28;37.79;102086.75;5108478;28;20055;-88
2022/05/08 11:40:34;;;;;;;0.30;0.30;;;;;;;17.26;38.76;102091.25;5102816;28;20041;-88
2022/05/08 11:43:05;;;;;;;1.10;0.68;;;;;;;17.36;37.28;102086.47;5103845;28;20022;-88
2022/05/08 11:45:36;;;;;;;0.52;0.52;;;;;;;17.36;36.80;102082.97;5104881;28;20055;-89
2022/05/08 11:48:07;;;;;;;0.52;0.35;;;;;;;17.33;37.65;102083.97;5125439;28;20399;-87
2022/05/08 11:50:52;;;;;;;0.57;0.43;;;;;;;17.38;37.59;102078.50;5113851;28;20043;-87
2022/05/08 11:53:22;;;;;;;0.30;0.30;;;;;;;17.51;37.42;102087.75;5107484;28;20082;-88
2022/05/08 11:55:53;;;;;;;0.20;0.20;;;;;;;17.52;37.11;102084.19;5091663;28;20126;-88
2022/05/08 11:58:30;;;;;;;;;;;;;;;17.71;37.33;102081.75;5102036;28;20039;-87
2022/05/08 12:01:01;;;;;;;0.20;0.20;;;;;;;17.76;36.66;102076.28;5091781;28;20000;-88
2022/05/08 12:03:32;;;;;;;1.98;0.40;;;;;;;17.82;37.57;102076.03;5087523;28;20147;-89
2022/05/08 12:06:11;;;;;;;0.32;0.32;;;;;;;17.75;37.88;102069.22;5099952;28;20035;-88
2022/05/08 12:08:42;;;;;;;0.75;0.75;;;;;;;17.86;37.65;102069.72;5085609;28;20612;-88
2022/05/08 12:11:30;;;;;;;1.77;1.35;;;;;;;17.83;36.58;102064.50;5084217;28;20095;-88
2022/05/08 12:14:00;;;;;;;0.50;0.50;;;;;;;18.08;37.11;102060.97;5094270;28;20102;-87
2022/05/08 12:16:32;;;;;;;0.68;0.68;;;;;;;18.15;36.71;102058.97;5085785;28;20122;-88
2022/05/08 12:19:15;;;;;;;0.20;0.20;;;;;;;18.20;37.44;102052.56;5085039;28;20405;-88
2022/05/08 12:21:46;;;;;;;1.35;1.10;;;;;;;18.24;37.27;102053.31;5087595;28;20308;-88